createdAt,value
2023-01-22T00:01:59.393Z,101291.31
2023-01-22T00:04:27.425Z,101280.06
2023-01-22T00:06:55.713Z,101283.66
2023-01-22T00:09:23.727Z,101281.13
2023-01-22T00:11:52.203Z,101289.00
2023-01-22T00:14:23.149Z,101279.44
2023-01-22T00:16:55.988Z,101286.47
2023-01-22T00:19:29.725Z,101282.16
2023-01-22T00:21:57.810Z,101276.94
2023-01-22T00:24:25.835Z,101266.38
2023-01-22T00:26:56.526Z,101276.16
2023-01-22T00:29:24.487Z,101272.81
2023-01-22T00:31:52.935Z,101280.59
2023-01-22T00:34:21.101Z,101278.13
2023-01-22T00:36:50.782Z,101264.16
2023-01-22T00:39:21.219Z,101276.41
2023-01-22T00:41:49.833Z,101268.47
2023-01-22T00:44:20.836Z,101266.78
2023-01-22T00:46:49.023Z,101266.88
2023-01-22T00:49:17.000Z,101264.22
2023-01-22T00:51:46.619Z,101268.50
2023-01-22T00:54:16.179Z,101264.97
2023-01-22T00:56:44.286Z,101255.56
2023-01-22T00:59:12.316Z,101258.19
2023-01-22T01:01:40.466Z,101255.47
2023-01-22T01:04:08.689Z,101246.81
2023-01-22T01:06:39.093Z,101252.78
2023-01-22T01:09:07.721Z,101253.75
2023-01-22T01:11:38.855Z,101254.56
2023-01-22T01:14:06.975Z,101257.31
2023-01-22T01:16:35.965Z,101260.00
2023-01-22T01:19:07.181Z,101257.41
2023-01-22T01:21:36.545Z,101260.31
2023-01-22T01:24:05.163Z,101257.63
2023-01-22T01:26:36.345Z,101251.69
2023-01-22T01:29:10.033Z,101248.16
2023-01-22T01:31:39.612Z,101251.66
2023-01-22T01:34:12.163Z,101240.44
2023-01-22T01:36:48.648Z,101250.13
2023-01-22T01:39:21.224Z,101252.69
2023-01-22T01:41:50.389Z,101252.75
2023-01-22T01:44:23.714Z,101250.25
2023-01-22T01:47:01.322Z,101251.00
2023-01-22T01:49:36.223Z,101246.63
2023-01-22T01:52:09.591Z,101249.22
2023-01-22T01:55:50.908Z,101249.97
2023-01-22T01:58:22.586Z,101237.88
2023-01-22T02:00:55.131Z,101236.13
2023-01-22T02:03:23.871Z,101237.13
2023-01-22T02:05:54.098Z,101236.22
2023-01-22T02:08:22.237Z,101240.59
2023-01-22T02:10:55.048Z,101228.28
2023-01-22T02:13:30.207Z,101237.03
2023-01-22T02:16:00.708Z,101237.16
2023-01-22T02:18:31.148Z,101242.41
2023-01-22T02:21:02.088Z,101230.94
2023-01-22T02:23:33.037Z,101241.47
2023-01-22T02:26:02.047Z,101241.59
2023-01-22T02:28:31.208Z,101232.13
2023-01-22T02:30:59.277Z,101237.34
2023-01-22T02:33:27.363Z,101229.47
2023-01-22T02:35:57.368Z,101235.63
2023-01-22T02:38:26.837Z,101233.94
2023-01-22T02:40:55.597Z,101238.34
2023-01-22T02:43:23.965Z,101233.94
2023-01-22T02:45:53.801Z,101238.31
2023-01-22T02:48:22.057Z,101239.25
2023-01-22T02:50:50.267Z,101234.91
2023-01-22T02:53:18.495Z,101233.19
2023-01-22T02:55:51.655Z,101234.19
2023-01-22T02:58:19.948Z,101228.88
2023-01-22T03:00:47.976Z,101230.75
2023-01-22T03:03:16.366Z,101221.00
2023-01-22T03:05:49.063Z,101231.41
2023-01-22T03:08:18.360Z,101232.28
2023-01-22T03:10:47.269Z,101234.09
2023-01-22T03:13:34.583Z,101230.56
2023-01-22T03:16:22.003Z,101228.84
2023-01-22T03:19:07.783Z,101227.16
2023-01-22T03:21:43.796Z,101232.28
2023-01-22T03:24:11.937Z,101223.56
2023-01-22T03:26:40.058Z,101222.75
2023-01-22T03:29:10.727Z,101228.78
2023-01-22T03:31:40.238Z,101216.56
2023-01-22T03:34:08.407Z,101233.91
2023-01-22T03:36:36.418Z,101227.13
2023-01-22T03:39:07.153Z,101219.25
2023-01-22T03:41:37.728Z,101216.59
2023-01-22T03:44:09.281Z,101221.88
2023-01-22T03:46:41.469Z,101232.41
2023-01-22T03:49:10.384Z,101221.09
2023-01-22T03:51:38.865Z,101221.97
2023-01-22T03:54:07.441Z,101220.19
2023-01-22T03:56:36.746Z,101225.44
2023-01-22T03:59:10.672Z,101230.69
2023-01-22T04:01:38.929Z,101223.78
2023-01-22T04:04:08.227Z,101227.25
2023-01-22T04:06:36.398Z,101231.81
2023-01-22T04:09:04.750Z,101232.69
2023-01-22T04:11:38.384Z,101229.97
2023-01-22T04:14:09.725Z,101227.44
2023-01-22T04:16:41.015Z,101230.06
2023-01-22T04:19:20.933Z,101238.75
2023-01-22T04:21:49.466Z,101238.72
2023-01-22T04:24:17.932Z,101237.00
2023-01-22T04:26:46.545Z,101232.66
2023-01-22T04:29:18.199Z,101236.13
2023-01-22T04:31:47.041Z,101239.59
2023-01-22T04:34:22.332Z,101247.63
2023-01-22T04:37:03.265Z,101238.75
2023-01-22T04:39:34.041Z,101236.13
2023-01-22T04:42:04.370Z,101239.66
2023-01-22T04:44:33.823Z,101237.91
2023-01-22T04:47:04.525Z,101241.44
2023-01-22T04:49:34.368Z,101226.72
2023-01-22T04:52:02.782Z,101237.19
2023-01-22T04:54:31.820Z,101238.94
2023-01-22T04:56:59.953Z,101240.72
2023-01-22T04:59:28.439Z,101234.56
2023-01-22T05:01:58.250Z,101231.03
2023-01-22T05:04:28.708Z,101234.47
2023-01-22T05:06:58.930Z,101238.00
2023-01-22T05:09:27.439Z,101241.50
2023-01-22T05:11:59.662Z,101232.06
2023-01-22T05:14:31.666Z,101238.19
2023-01-22T05:16:59.683Z,101244.44
2023-01-22T05:19:27.760Z,101249.59
2023-01-22T05:21:56.332Z,101248.00
2023-01-22T05:24:25.783Z,101250.47
2023-01-22T05:26:56.569Z,101255.66
2023-01-22T05:29:31.801Z,101257.47
2023-01-22T05:32:10.519Z,101255.66
2023-01-22T05:34:47.668Z,101260.16
2023-01-22T05:37:18.547Z,101254.91
2023-01-22T05:39:48.261Z,101257.72
2023-01-22T05:42:18.601Z,101259.38
2023-01-22T05:44:51.795Z,101262.09
2023-01-22T05:47:23.940Z,101256.75
2023-01-22T05:50:03.147Z,101263.72
2023-01-22T05:52:33.600Z,101261.97
2023-01-22T05:55:02.941Z,101258.63
2023-01-22T05:57:37.996Z,101268.19
2023-01-22T06:00:08.477Z,101262.00
2023-01-22T06:02:44.734Z,101262.16
2023-01-22T06:05:15.435Z,101261.19
2023-01-22T06:07:46.635Z,101262.91
2023-01-22T06:10:17.518Z,101268.19
2023-01-22T06:12:50.146Z,101269.88
2023-01-22T06:15:18.160Z,101268.94
2023-01-22T06:17:51.945Z,101269.03
2023-01-22T06:20:22.916Z,101265.53
2023-01-22T06:22:53.275Z,101267.31
2023-01-22T06:25:22.711Z,101265.53
2023-01-22T06:28:12.042Z,101262.19
2023-01-22T06:30:44.359Z,101273.44
2023-01-22T06:33:15.289Z,101270.75
2023-01-22T06:35:44.193Z,101261.13
2023-01-22T06:38:12.154Z,101261.00
2023-01-22T06:40:41.862Z,101271.66
2023-01-22T06:43:10.832Z,101275.97
2023-01-22T06:45:39.992Z,101277.72
2023-01-22T06:48:10.999Z,101268.19
2023-01-22T06:50:39.759Z,101272.59
2023-01-22T06:53:08.261Z,101277.75
2023-01-22T06:56:51.691Z,101285.50
2023-01-22T06:59:23.279Z,101282.91
2023-01-22T07:01:51.817Z,101289.91
2023-01-22T07:04:19.815Z,101287.22
2023-01-22T07:06:48.118Z,101302.13
2023-01-22T07:09:19.758Z,101310.09
2023-01-22T07:11:48.160Z,101310.88
2023-01-22T07:14:28.903Z,101314.53
2023-01-22T07:17:06.821Z,101317.13
2023-01-22T07:19:34.873Z,101318.84
2023-01-22T07:22:03.260Z,101314.44
2023-01-22T07:24:31.356Z,101324.28
2023-01-22T07:26:59.288Z,101319.88
2023-01-22T07:29:28.570Z,101325.13
2023-01-22T07:31:56.859Z,101326.09
2023-01-22T07:34:25.006Z,101327.81
2023-01-22T07:36:53.002Z,101328.66
2023-01-22T07:39:21.180Z,101329.53
2023-01-22T07:41:51.752Z,101334.88
2023-01-22T07:44:22.178Z,101332.19
2023-01-22T07:46:51.705Z,101336.53
2023-01-22T07:49:19.869Z,101338.28
2023-01-22T07:51:48.108Z,101346.19
2023-01-22T07:54:18.404Z,101345.47
2023-01-22T07:56:46.925Z,101349.91
2023-01-22T07:59:14.914Z,101352.63
2023-01-22T08:01:45.654Z,101354.34
2023-01-22T08:04:15.160Z,101369.13
2023-01-22T08:06:43.330Z,101362.19
2023-01-22T08:09:11.618Z,101363.91
2023-01-22T08:11:39.571Z,101363.19
2023-01-22T08:14:07.803Z,101362.38
2023-01-22T08:16:36.750Z,101371.19
2023-01-22T08:19:07.075Z,101375.72
2023-01-22T08:21:36.385Z,101381.94
2023-01-22T08:24:05.129Z,101382.09
2023-01-22T08:26:35.405Z,101375.91
2023-01-22T08:29:06.440Z,101386.59
2023-01-22T08:31:35.743Z,101382.31
2023-01-22T08:34:08.371Z,101381.44
2023-01-22T08:36:40.267Z,101379.97
2023-01-22T08:39:10.737Z,101395.72
2023-01-22T08:41:38.812Z,101390.47
2023-01-22T08:44:07.078Z,101394.03
2023-01-22T08:46:35.920Z,101390.47
2023-01-22T08:49:04.781Z,101397.59
2023-01-22T08:51:33.367Z,101398.56
2023-01-22T08:54:02.999Z,101402.25
2023-01-22T08:56:30.992Z,101403.94
2023-01-22T08:59:00.767Z,101401.34
2023-01-22T09:01:28.750Z,101411.03
2023-01-22T09:03:56.747Z,101408.63
2023-01-22T09:06:25.064Z,101414.69
2023-01-22T09:08:53.017Z,101414.03
2023-01-22T09:11:22.804Z,101408.84
2023-01-22T09:13:51.117Z,101412.50
2023-01-22T09:16:19.314Z,101405.75
2023-01-22T09:18:47.492Z,101414.63
2023-01-22T09:21:19.608Z,101413.00
2023-01-22T09:23:47.653Z,101414.72
2023-01-22T09:26:15.681Z,101413.81
2023-01-22T09:28:45.100Z,101419.16
2023-01-22T09:31:15.036Z,101429.09
2023-01-22T09:33:45.694Z,101427.22
2023-01-22T09:36:15.819Z,101430.81
2023-01-22T09:38:44.365Z,101431.69
2023-01-22T09:41:20.568Z,101430.81
2023-01-22T09:43:54.217Z,101432.69
2023-01-22T09:46:29.824Z,101434.34
2023-01-22T09:49:08.328Z,101433.72
2023-01-22T09:51:36.892Z,101439.88
2023-01-22T09:54:08.628Z,101441.59
2023-01-22T09:56:44.031Z,101438.13
2023-01-22T09:59:16.129Z,101444.22
2023-01-22T10:01:46.921Z,101438.06
2023-01-22T10:04:35.198Z,101441.81
2023-01-22T10:07:07.739Z,101442.75
2023-01-22T10:09:40.794Z,101437.63
2023-01-22T10:12:15.154Z,101436.84
2023-01-22T10:14:44.826Z,101444.56
2023-01-22T10:17:20.342Z,101447.97
2023-01-22T10:19:51.438Z,101444.53
2023-01-22T10:22:22.517Z,101445.34
2023-01-22T10:24:50.894Z,101449.25
2023-01-22T10:27:23.781Z,101450.19
2023-01-22T10:30:01.733Z,101451.00
2023-01-22T10:32:32.078Z,101450.47
2023-01-22T10:35:02.691Z,101440.88
2023-01-22T10:37:31.079Z,101440.53
2023-01-22T10:40:01.301Z,101450.22
2023-01-22T10:42:31.863Z,101448.72
2023-01-22T10:45:16.983Z,101443.47
2023-01-22T10:47:45.244Z,101439.59
2023-01-22T10:50:17.254Z,101439.94
2023-01-22T10:52:49.634Z,101445.50
2023-01-22T10:55:22.946Z,101450.31
2023-01-22T10:57:55.718Z,101445.00
2023-01-22T11:00:39.781Z,101439.72
2023-01-22T11:03:22.354Z,101442.00
2023-01-22T11:05:56.197Z,101444.88
2023-01-22T11:08:30.429Z,101451.13
2023-01-22T11:11:04.352Z,101448.88
2023-01-22T11:13:40.945Z,101449.97
2023-01-22T11:16:17.245Z,101443.59
2023-01-22T11:18:52.869Z,101441.81
2023-01-22T11:21:29.205Z,101448.09
2023-01-22T11:24:02.956Z,101453.25
2023-01-22T11:26:44.776Z,101446.53
2023-01-22T11:29:25.099Z,101447.34
2023-01-22T11:32:04.218Z,101451.03
2023-01-22T11:34:45.934Z,101450.03
2023-01-22T11:37:16.747Z,101446.63
2023-01-22T11:39:56.572Z,101449.91
2023-01-22T11:42:37.089Z,101447.47
2023-01-22T11:45:31.462Z,101437.09
2023-01-22T11:48:24.226Z,101438.63
2023-01-22T11:51:04.016Z,101435.13
2023-01-22T11:53:57.339Z,101435.00
2023-01-22T11:58:05.141Z,101434.06
2023-01-22T12:00:52.041Z,101427.28
2023-01-22T12:03:57.677Z,101436.25
2023-01-22T12:06:48.320Z,101430.34
2023-01-22T12:09:24.572Z,101426.97
2023-01-22T12:12:03.455Z,101421.78
2023-01-22T12:14:47.461Z,101423.50
2023-01-22T12:17:32.359Z,101421.50
2023-01-22T12:20:27.409Z,101424.50
2023-01-22T12:23:00.745Z,101419.97
2023-01-22T12:25:38.546Z,101426.28
2023-01-22T12:28:16.736Z,101423.22
2023-01-22T12:30:53.450Z,101424.09
2023-01-22T12:33:27.400Z,101415.44
2023-01-22T12:36:01.116Z,101422.53
2023-01-22T12:38:39.763Z,101425.22
2023-01-22T12:41:19.291Z,101415.44
2023-01-22T12:43:53.841Z,101418.38
2023-01-22T12:46:30.956Z,101424.47
2023-01-22T12:49:06.730Z,101425.13
2023-01-22T12:51:40.892Z,101424.19
2023-01-22T12:54:20.938Z,101428.59
2023-01-22T12:56:49.897Z,101433.81
2023-01-22T12:59:43.403Z,101427.72
2023-01-22T13:02:36.515Z,101430.28
2023-01-22T13:05:18.889Z,101431.19
2023-01-22T13:07:48.220Z,101424.97
2023-01-22T13:10:33.397Z,101423.34
2023-01-22T13:13:23.746Z,101433.75
2023-01-22T13:15:56.283Z,101428.56
2023-01-22T13:18:28.631Z,101436.44
2023-01-22T13:21:05.932Z,101429.44
2023-01-22T13:23:36.462Z,101432.03
2023-01-22T13:26:05.778Z,101435.56
2023-01-22T13:28:34.548Z,101440.81
2023-01-22T13:31:05.428Z,101443.19
2023-01-22T13:33:35.037Z,101443.25
2023-01-22T13:36:11.029Z,101444.09
2023-01-22T13:38:39.247Z,101452.00
2023-01-22T13:41:13.067Z,101450.94
2023-01-22T13:43:44.578Z,101447.25
2023-01-22T13:46:15.736Z,101457.75
2023-01-22T13:48:45.385Z,101456.75
2023-01-22T13:51:21.978Z,101458.50
2023-01-22T13:53:54.982Z,101449.63
2023-01-22T13:56:26.678Z,101456.75
2023-01-22T13:59:06.389Z,101461.75
2023-01-22T14:01:36.727Z,101465.25
2023-01-22T14:04:07.929Z,101459.31
2023-01-22T14:06:49.358Z,101453.06
2023-01-22T14:09:26.976Z,101460.91
2023-01-22T14:11:55.121Z,101459.19
2023-01-22T14:14:23.112Z,101466.38
2023-01-22T14:16:51.514Z,101461.88
2023-01-22T14:19:20.876Z,101464.63
2023-01-22T14:21:49.113Z,101465.56
2023-01-22T14:24:17.160Z,101456.59
2023-01-22T14:26:45.751Z,101468.03
2023-01-22T14:29:13.791Z,101475.16
2023-01-22T14:31:44.534Z,101472.47
2023-01-22T14:34:15.413Z,101465.47
2023-01-22T14:36:47.462Z,101473.44
2023-01-22T14:39:15.729Z,101472.28
2023-01-22T14:41:44.123Z,101476.63
2023-01-22T14:44:12.223Z,101476.53
2023-01-22T14:46:41.498Z,101483.53
2023-01-22T14:49:09.561Z,101483.59
2023-01-22T14:51:37.520Z,101476.38
2023-01-22T14:54:07.242Z,101484.22
2023-01-22T14:56:37.309Z,101477.97
2023-01-22T14:59:05.321Z,101483.28
2023-01-22T15:01:35.847Z,101482.41
2023-01-22T15:04:06.203Z,101479.63
2023-01-22T15:06:34.434Z,101484.94
2023-01-22T15:09:04.926Z,101484.84
2023-01-22T15:11:34.396Z,101492.75
2023-01-22T15:14:05.309Z,101495.28
2023-01-22T15:16:38.188Z,101506.63
2023-01-22T15:19:06.577Z,101496.88
2023-01-22T15:21:34.716Z,101503.03
2023-01-22T15:24:05.873Z,101502.97
2023-01-22T15:26:38.288Z,101501.16
2023-01-22T15:29:11.943Z,101508.13
2023-01-22T15:31:40.522Z,101503.69
2023-01-22T15:34:08.873Z,101505.34
2023-01-22T15:36:39.416Z,101506.16
2023-01-22T15:39:10.051Z,101509.63
2023-01-22T15:41:41.504Z,101510.34
2023-01-22T15:44:13.038Z,101513.78
2023-01-22T15:46:42.693Z,101515.53
2023-01-22T15:49:12.416Z,101513.72
2023-01-22T15:51:41.297Z,101519.94
2023-01-22T15:54:15.671Z,101520.69
2023-01-22T15:56:47.650Z,101525.13
2023-01-22T15:59:15.988Z,101518.00
2023-01-22T16:01:44.233Z,101518.88
2023-01-22T16:04:14.997Z,101527.66
2023-01-22T16:06:43.311Z,101525.03
2023-01-22T16:09:11.593Z,101534.56
2023-01-22T16:11:39.541Z,101534.53
2023-01-22T16:14:09.199Z,101527.47
2023-01-22T16:16:39.294Z,101523.97
2023-01-22T16:19:10.956Z,101530.03
2023-01-22T16:21:41.370Z,101531.78
2023-01-22T16:24:10.949Z,101526.50
2023-01-22T16:26:39.321Z,101524.63
2023-01-22T16:29:08.893Z,101536.00
2023-01-22T16:31:38.038Z,101539.53
2023-01-22T16:34:11.943Z,101532.56
2023-01-22T16:36:43.253Z,101536.91
2023-01-22T16:39:18.835Z,101548.25
2023-01-22T16:41:49.016Z,101553.53
2023-01-22T16:44:20.590Z,101550.97
2023-01-22T16:46:52.621Z,101551.88
2023-01-22T16:49:22.612Z,101553.41
2023-01-22T16:51:53.224Z,101554.47
2023-01-22T16:54:23.220Z,101557.03
2023-01-22T16:58:52.763Z,101558.56
2023-01-22T17:01:23.012Z,101563.84
2023-01-22T17:03:51.132Z,101562.13
2023-01-22T17:06:25.369Z,101566.53
2023-01-22T17:08:56.038Z,101563.91
2023-01-22T17:11:26.442Z,101563.84
2023-01-22T17:13:56.011Z,101576.06
2023-01-22T17:16:24.223Z,101569.06
2023-01-22T17:18:55.093Z,101573.50
2023-01-22T17:21:26.270Z,101581.50
2023-01-22T17:23:57.189Z,101579.88
2023-01-22T17:26:27.858Z,101584.22
2023-01-22T17:28:59.812Z,101589.56
2023-01-22T17:31:31.545Z,101593.03
2023-01-22T17:34:04.011Z,101592.94
2023-01-22T17:36:32.534Z,101585.03
2023-01-22T17:39:01.625Z,101591.94
2023-01-22T17:41:30.209Z,101593.66
2023-01-22T17:44:01.591Z,101590.94
2023-01-22T17:46:32.428Z,101595.28
2023-01-22T17:49:01.994Z,101598.75
2023-01-22T17:51:31.330Z,101597.81
2023-01-22T17:54:03.192Z,101595.25
2023-01-22T17:56:33.088Z,101601.38
2023-01-22T17:59:06.000Z,101603.06
2023-01-22T18:01:36.680Z,101606.56
2023-01-22T18:04:07.403Z,101604.97
2023-01-22T18:06:36.375Z,101611.88
2023-01-22T18:09:05.601Z,101610.97
2023-01-22T18:11:34.911Z,101622.38
2023-01-22T18:14:09.484Z,101619.72
2023-01-22T18:16:41.923Z,101617.91
2023-01-22T18:19:11.561Z,101631.06
2023-01-22T18:21:40.497Z,101625.03
2023-01-22T18:24:10.344Z,101628.50
2023-01-22T18:26:40.997Z,101627.59
2023-01-22T18:29:12.971Z,101636.44
2023-01-22T18:31:41.835Z,101632.13
2023-01-22T18:34:13.616Z,101629.50
2023-01-22T18:36:42.641Z,101633.78
2023-01-22T18:39:15.577Z,101632.13
2023-01-22T18:41:45.209Z,101630.44
2023-01-22T18:44:17.422Z,101631.31
2023-01-22T18:46:48.350Z,101631.34
2023-01-22T18:49:19.603Z,101628.88
2023-01-22T18:51:48.246Z,101635.06
2023-01-22T18:54:17.168Z,101632.34
2023-01-22T18:56:45.970Z,101630.59
2023-01-22T18:59:15.474Z,101635.78
2023-01-22T19:01:50.471Z,101635.81
2023-01-22T19:04:21.699Z,101632.38
2023-01-22T19:06:55.349Z,101638.59
2023-01-22T19:09:24.010Z,101636.78
2023-01-22T19:11:53.275Z,101645.50
2023-01-22T19:14:23.299Z,101639.41
2023-01-22T19:16:53.536Z,101653.56
2023-01-22T19:19:24.287Z,101650.94
2023-01-22T19:21:55.319Z,101654.34
2023-01-22T19:24:27.877Z,101658.81
2023-01-22T19:26:56.688Z,101656.97
2023-01-22T19:29:27.640Z,101654.25
2023-01-22T19:31:57.376Z,101655.22
2023-01-22T19:34:30.400Z,101663.16
2023-01-22T19:37:02.872Z,101669.22
2023-01-22T19:39:31.457Z,101673.56
2023-01-22T19:42:02.243Z,101671.84
2023-01-22T19:44:35.435Z,101677.94
2023-01-22T19:47:03.902Z,101680.63
2023-01-22T19:49:32.306Z,101683.19
2023-01-22T19:52:02.561Z,101686.75
2023-01-22T19:54:33.175Z,101683.25
2023-01-22T19:57:04.052Z,101685.88
2023-01-22T19:59:32.179Z,101684.09
2023-01-22T20:02:01.704Z,101682.34
2023-01-22T20:04:35.904Z,101689.31
2023-01-22T20:07:05.913Z,101685.72
2023-01-22T20:09:35.744Z,101698.13
2023-01-22T20:12:05.423Z,101695.34
2023-01-22T20:14:35.592Z,101690.16
2023-01-22T20:17:05.026Z,101698.88
2023-01-22T20:19:38.395Z,101698.06
2023-01-22T20:22:07.211Z,101703.31
2023-01-22T20:24:40.449Z,101701.56
2023-01-22T20:27:09.275Z,101701.66
2023-01-22T20:29:39.600Z,101706.84
2023-01-22T20:32:09.420Z,101709.44
2023-01-22T20:34:42.202Z,101711.13
2023-01-22T20:37:10.406Z,101710.19
2023-01-22T20:39:38.857Z,101713.75
2023-01-22T20:42:07.237Z,101697.81
2023-01-22T20:44:35.842Z,101709.19
2023-01-22T20:47:04.178Z,101697.75
2023-01-22T20:49:34.137Z,101699.56
2023-01-22T20:52:02.399Z,101695.13
2023-01-22T20:54:32.163Z,101696.84
2023-01-22T20:57:00.444Z,101693.41
2023-01-22T20:59:28.766Z,101696.75
2023-01-22T21:01:58.915Z,101702.97
2023-01-22T21:04:27.429Z,101695.91
2023-01-22T21:06:57.999Z,101703.84
2023-01-22T21:09:28.134Z,101708.22
2023-01-22T21:12:00.141Z,101707.25
2023-01-22T21:14:30.431Z,101702.91
2023-01-22T21:16:58.610Z,101704.75
2023-01-22T21:19:29.668Z,101708.22
2023-01-22T21:22:00.538Z,101712.72
2023-01-22T21:24:30.780Z,101705.59
2023-01-22T21:27:01.597Z,101709.06
2023-01-22T21:29:39.136Z,101705.53
2023-01-22T21:32:09.466Z,101710.09
2023-01-22T21:34:40.560Z,101705.63
2023-01-22T21:37:10.442Z,101714.31
2023-01-22T21:39:45.153Z,101717.78
2023-01-22T21:42:31.488Z,101710.69
2023-01-22T21:45:16.941Z,101709.81
2023-01-22T21:47:45.256Z,101716.03
2023-01-22T21:50:13.889Z,101711.66
2023-01-22T21:52:45.258Z,101723.94
2023-01-22T21:55:14.996Z,101720.38
2023-01-22T22:00:00.692Z,101724.69
2023-01-22T22:02:28.772Z,101718.44
2023-01-22T22:04:57.000Z,101715.75
2023-01-22T22:07:27.982Z,101721.13
2023-01-22T22:09:55.921Z,101719.34
2023-01-22T22:12:25.664Z,101717.53
2023-01-22T22:14:56.467Z,101720.19
2023-01-22T22:17:28.449Z,101716.66
2023-01-22T22:19:57.250Z,101717.56
2023-01-22T22:22:25.383Z,101714.84
2023-01-22T22:24:53.753Z,101711.31
2023-01-22T22:27:21.815Z,101720.97
2023-01-22T22:29:49.941Z,101713.19
2023-01-22T22:32:17.987Z,101719.19
2023-01-22T22:34:47.577Z,101726.97
2023-01-22T22:37:16.049Z,101727.78
2023-01-22T22:39:44.222Z,101733.00
2023-01-22T22:42:14.980Z,101732.91
2023-01-22T22:44:46.203Z,101731.97
2023-01-22T22:47:14.731Z,101727.50
2023-01-22T22:49:45.478Z,101737.13
2023-01-22T22:52:15.425Z,101740.56
2023-01-22T22:54:43.993Z,101738.88
2023-01-22T22:57:11.988Z,101739.78
2023-01-22T22:59:40.276Z,101745.81
2023-01-22T23:02:09.287Z,101743.16
2023-01-22T23:04:40.158Z,101749.31
2023-01-22T23:07:10.929Z,101751.84
2023-01-22T23:09:40.840Z,101749.13
2023-01-22T23:12:09.186Z,101754.38
2023-01-22T23:14:37.740Z,101747.31
2023-01-22T23:17:08.140Z,101741.06
2023-01-22T23:19:39.200Z,101743.66
2023-01-22T23:22:07.412Z,101746.19
2023-01-22T23:24:35.425Z,101752.16
2023-01-22T23:27:05.364Z,101752.22
2023-01-22T23:29:33.451Z,101753.84
2023-01-22T23:32:01.555Z,101760.00
2023-01-22T23:34:30.091Z,101755.66
2023-01-22T23:37:00.481Z,101749.50
2023-01-22T23:39:29.087Z,101754.75
2023-01-22T23:41:59.465Z,101752.13
2023-01-22T23:44:29.389Z,101739.72
2023-01-22T23:46:59.854Z,101758.19
2023-01-22T23:49:28.074Z,101762.63
2023-01-22T23:51:58.734Z,101745.97
2023-01-22T23:54:26.647Z,101745.03
2023-01-22T23:56:54.985Z,101745.84
2023-01-22T23:59:25.232Z,101744.94
